Estación meteorológica de Calldetenes (Osona, Plana de Vic)

Consulta los datos en tiempo real de la estación meteorológica de Calldetenes





Hora UTC 02:45
Temperatura 17.5 ºC
Suelo 15 cm 17.3 ºC
Humedad 78.0 %
Presión 1023.2 hPa
Pluja 0.0 mm
Velocidad viento 3.8 km/h
Dirección viento ESE
Radiación solar 0.1 W/m²

Webcam

Datos diarios 2026-09-06



Hora UTC (invierno +1h; verano +2h)
Temperatura (ºC) Humedad (%) Presión (hPa) Velocidad viento (km/h) Precipitación (mm) Radiación solar (W/m²)
Hora UTC Aire Suelo 15 cm Humedad Presión Vel. Dir. Vel. Max Dir. Intent. máx 5 min. Rad. Sol.
00:05 19.3 19.2 70.9 1023.6 2.2 SSW 2.2 SW 0.0 0.1
00:10 19.2 19.1 70.9 1023.6 1.1 S 3.2 SSW 0.0 0.1
00:15 19.2 19.0 70.6 1023.6 1.1 SSE 4.6 ESE 0.0 0.1
00:20 19.2 19.0 71.1 1023.6 5.3 ESE 7.4 ESE 0.0 0.1
00:25 19.4 19.1 70.6 1023.6 3.7 ESE 5.6 ESE 0.0 0.1
00:30 19.3 19.2 69.8 1023.6 3.5 ESE 6.7 ESE 0.0 0.1
00:35 19.2 19.1 71.0 1023.5 5.7 ESE 7.4 ESE 0.0 0.1
00:40 19.1 19.1 71.2 1023.5 4.5 ESE 6.7 ESE 0.0 0.1
00:45 19.0 19.0 72.2 1023.5 5.2 ESE 7.4 ESE 0.0 0.1
00:50 19.2 19.0 71.2 1023.5 3.4 ESE 6.0 ESE 0.0 0.1
00:55 19.1 19.0 70.5 1023.5 1.8 ESE 3.5 ESE 0.0 0.1
01:00 18.9 18.8 71.9 1023.5 2.5 SE 4.2 SE 0.0 0.1
01:05 18.8 18.7 72.6 1023.4 2.3 ESE 3.9 ESE 0.0 0.1
01:10 18.7 18.5 73.1 1023.4 0.5 SE 1.8 ESE 0.0 0.1
01:15 18.8 18.5 72.8 1023.4 0.4 SSW 2.1 SSW 0.0 0.1
01:20 18.8 18.5 72.6 1023.4 2.0 S 4.6 SSW 0.0 0.1
01:25 18.8 18.5 72.2 1023.4 1.0 SSW 2.5 SSW 0.0 0.1
01:30 18.7 18.5 72.2 1023.4 0.5 SE 1.8 SE 0.0 0.1
01:35 18.6 18.4 72.6 1023.4 0.7 ESE 3.5 ESE 0.0 0.1
01:40 18.5 18.2 73.6 1023.4 2.4 ESE 3.9 ESE 0.0 0.1
01:45 18.5 18.2 73.9 1023.3 2.1 SE 3.5 ESE 0.0 0.1
01:50 18.5 18.2 73.6 1023.3 1.7 SE 2.8 SE 0.0 0.1
01:55 18.4 18.2 73.6 1023.3 0.1 SSE 1.8 SSE 0.0 0.1
02:00 18.2 18.0 74.7 1023.3 0.0 NNE 0.0 SSE 0.0 0.1
02:05 18.1 17.9 74.6 1023.3 0.0 NNE 0.0 SSE 0.0 0.1
02:10 18.1 17.8 74.9 1023.3 0.0 NNE 0.0 SSE 0.0 0.1
02:15 17.9 17.7 75.0 1023.3 0.1 ESE 2.5 ESE 0.0 0.1
02:20 17.8 17.7 75.7 1023.3 1.9 ESE 3.5 ESE 0.0 0.1
02:25 17.7 17.6 76.4 1023.3 2.5 ESE 4.2 ESE 0.0 0.1
02:30 17.6 17.5 77.8 1023.3 3.2 ESE 4.6 ESE 0.0 0.1
02:35 17.7 17.5 76.5 1023.3 3.2 ESE 4.2 ESE 0.0 0.1
02:40 17.5 17.4 76.9 1023.3 3.6 SE 6.0 ESE 0.0 0.1
02:45 17.5 17.3 78.0 1023.2 3.8 ESE 6.0 SE 0.0 0.1
Máxima 19.4 19.2 78.0 1023.6 5.7 ESE 7.4 ESE 0.0 0.1
Mínima 17.5 17.3 69.8 1023.2
Total 0.0